createdAt,value
2023-04-14T00:00:13.477Z,3.80
2023-04-14T00:02:44.295Z,4.00
2023-04-14T00:05:12.909Z,3.20
2023-04-14T00:07:41.228Z,3.60
2023-04-14T00:10:10.521Z,3.10
2023-04-14T00:12:38.804Z,3.40
2023-04-14T00:15:07.958Z,3.20
2023-04-14T00:17:37.938Z,3.80
2023-04-14T00:20:07.017Z,3.40
2023-04-14T00:22:35.280Z,2.80
2023-04-14T00:25:04.162Z,3.40
2023-04-14T00:27:32.474Z,3.00
2023-04-14T00:30:01.040Z,3.10
2023-04-14T00:32:29.828Z,3.40
2023-04-14T00:35:00.382Z,3.40
2023-04-14T00:37:31.410Z,3.30
2023-04-14T00:40:01.101Z,3.60
2023-04-14T00:42:29.545Z,3.70
2023-04-14T00:44:57.590Z,4.20
2023-04-14T00:47:26.699Z,2.60
2023-04-14T00:49:54.780Z,3.10
2023-04-14T00:52:22.844Z,3.30
2023-04-14T00:54:51.305Z,3.40
2023-04-14T00:57:19.612Z,3.30
2023-04-14T00:59:48.782Z,2.90
2023-04-14T01:02:18.308Z,3.20
2023-04-14T01:04:54.167Z,2.90
2023-04-14T01:07:23.886Z,3.40
2023-04-14T01:09:53.472Z,3.10
2023-04-14T01:12:34.059Z,4.10
2023-04-14T01:15:15.926Z,3.40
2023-04-14T01:17:59.312Z,3.50
2023-04-14T01:20:36.456Z,3.80
2023-04-14T01:23:08.908Z,4.20
2023-04-14T01:25:43.210Z,3.50
2023-04-14T01:28:37.906Z,3.50
2023-04-14T01:31:56.062Z,3.80
2023-04-14T01:34:42.819Z,3.70
2023-04-14T01:37:15.294Z,3.80
2023-04-14T01:39:47.224Z,3.70
2023-04-14T01:42:17.435Z,4.40
2023-04-14T01:44:45.553Z,3.70
2023-04-14T01:47:15.340Z,4.40
2023-04-14T01:49:43.913Z,4.10
2023-04-14T01:52:12.319Z,4.20
2023-04-14T01:54:41.620Z,4.50
2023-04-14T01:57:11.369Z,3.90
2023-04-14T01:59:41.855Z,3.90
2023-04-14T02:02:11.482Z,4.20
2023-04-14T02:04:39.994Z,5.00
2023-04-14T02:07:08.650Z,4.00
2023-04-14T02:09:36.877Z,4.60
2023-04-14T02:12:05.340Z,4.60
2023-04-14T02:14:33.459Z,4.10
2023-04-14T02:17:03.198Z,4.40
2023-04-14T02:19:32.110Z,4.30
2023-04-14T02:22:03.111Z,3.80
2023-04-14T02:24:32.316Z,4.30
2023-04-14T02:27:10.968Z,4.20
2023-04-14T02:29:43.543Z,4.20
2023-04-14T02:32:22.851Z,4.30
2023-04-14T02:35:16.958Z,4.70
2023-04-14T02:37:49.007Z,4.10
2023-04-14T02:40:20.324Z,4.30
2023-04-14T02:42:53.041Z,3.90
2023-04-14T02:45:22.927Z,4.00
2023-04-14T02:47:59.809Z,4.60
2023-04-14T02:50:28.862Z,5.10
2023-04-14T02:53:02.857Z,4.80
2023-04-14T02:55:35.306Z,4.90
2023-04-14T02:58:03.653Z,4.30
2023-04-14T03:00:33.308Z,4.10
2023-04-14T03:03:02.549Z,4.60
2023-04-14T03:05:31.372Z,4.80
2023-04-14T03:08:04.376Z,4.50
2023-04-14T03:10:33.253Z,4.50
2023-04-14T03:13:02.524Z,4.90
2023-04-14T03:15:30.788Z,4.60
2023-04-14T03:17:59.354Z,4.60
2023-04-14T03:20:30.156Z,4.70
2023-04-14T03:23:01.666Z,5.00
2023-04-14T03:25:33.095Z,4.90
2023-04-14T03:28:02.916Z,5.70
2023-04-14T03:30:32.578Z,4.80
2023-04-14T03:33:04.622Z,4.80
2023-04-14T03:35:34.511Z,4.60
2023-04-14T03:38:02.967Z,5.20
2023-04-14T03:40:32.128Z,5.50
2023-04-14T03:43:02.669Z,5.00
2023-04-14T03:45:32.420Z,5.00
2023-04-14T03:48:03.521Z,4.90
2023-04-14T03:50:36.928Z,5.10
2023-04-14T03:53:06.550Z,5.70
2023-04-14T03:55:34.651Z,5.30
2023-04-14T03:58:12.456Z,4.90
2023-04-14T04:00:41.420Z,5.90
2023-04-14T04:03:10.907Z,5.30
2023-04-14T04:05:42.164Z,5.80
2023-04-14T04:08:10.799Z,5.60
2023-04-14T04:10:39.044Z,5.60
2023-04-14T04:13:13.560Z,5.70
2023-04-14T04:15:42.009Z,5.80
2023-04-14T04:18:11.505Z,5.80
2023-04-14T04:20:39.836Z,6.00
2023-04-14T04:23:08.716Z,5.70
2023-04-14T04:25:37.593Z,5.90
2023-04-14T04:28:15.565Z,5.80
2023-04-14T04:30:45.747Z,6.60
2023-04-14T04:33:15.753Z,6.60
2023-04-14T04:35:44.314Z,6.20
2023-04-14T04:38:13.317Z,6.20
2023-04-14T04:40:43.405Z,6.00
2023-04-14T04:43:19.407Z,6.00
2023-04-14T04:46:19.666Z,7.60
2023-04-14T04:48:52.659Z,6.80
2023-04-14T04:51:21.131Z,6.60
2023-04-14T04:53:49.678Z,6.60
2023-04-14T04:56:21.892Z,5.90
2023-04-14T04:58:50.531Z,6.00
2023-04-14T05:01:21.602Z,6.10
2023-04-14T05:03:50.695Z,6.00
2023-04-14T05:06:18.971Z,6.20
2023-04-14T05:08:56.300Z,6.50
2023-04-14T05:11:24.979Z,5.10
2023-04-14T05:13:53.228Z,6.00
2023-04-14T05:16:21.343Z,6.20
2023-04-14T05:19:00.245Z,6.20
2023-04-14T05:21:29.365Z,6.70
2023-04-14T05:23:57.546Z,6.80
2023-04-14T05:26:49.033Z,6.60
2023-04-14T05:29:16.342Z,6.90
2023-04-14T05:31:44.510Z,6.90
2023-04-14T05:34:12.740Z,7.70
2023-04-14T05:36:41.720Z,6.50
2023-04-14T05:39:10.092Z,6.90
2023-04-14T05:41:39.334Z,7.00
2023-04-14T05:44:08.836Z,7.20
2023-04-14T05:46:37.092Z,7.50
2023-04-14T05:49:06.621Z,6.50
2023-04-14T05:51:34.970Z,6.70
2023-04-14T05:54:07.618Z,7.30
2023-04-14T05:56:36.878Z,6.50
2023-04-14T05:59:05.052Z,7.30
2023-04-14T06:01:34.100Z,8.50
2023-04-14T06:04:04.257Z,7.40
2023-04-14T06:06:32.984Z,7.00
2023-04-14T06:09:05.894Z,7.80
2023-04-14T06:11:34.143Z,7.10
2023-04-14T06:14:03.213Z,7.90
2023-04-14T06:16:32.110Z,8.20
2023-04-14T06:19:04.288Z,7.50
2023-04-14T06:21:32.800Z,8.00
2023-04-14T06:24:00.959Z,7.70
2023-04-14T06:26:29.478Z,8.20
2023-04-14T06:29:01.314Z,7.20
2023-04-14T06:31:29.761Z,7.30
2023-04-14T06:34:00.715Z,7.00
2023-04-14T06:36:31.834Z,7.40
2023-04-14T06:39:00.540Z,8.70
2023-04-14T06:41:33.401Z,7.90
2023-04-14T06:44:10.035Z,6.60
2023-04-14T06:46:38.472Z,6.70
2023-04-14T06:49:08.715Z,7.70
2023-04-14T06:51:40.279Z,7.50
2023-04-14T06:54:08.756Z,6.80
2023-04-14T06:56:36.782Z,6.60
2023-04-14T06:59:05.085Z,7.10
2023-04-14T07:01:33.500Z,6.40
2023-04-14T07:04:06.876Z,6.80
2023-04-14T07:06:36.234Z,6.80
2023-04-14T07:09:06.486Z,7.30
2023-04-14T07:11:34.758Z,6.60
2023-04-14T07:14:03.568Z,6.70
2023-04-14T07:16:32.082Z,6.90
2023-04-14T07:19:01.104Z,7.10
2023-04-14T07:21:29.646Z,7.30
2023-04-14T07:24:07.530Z,7.00
2023-04-14T07:26:37.106Z,7.40
2023-04-14T07:29:05.356Z,6.80
2023-04-14T07:31:35.810Z,6.70
2023-04-14T07:34:04.316Z,7.30
2023-04-14T07:36:33.039Z,6.90
2023-04-14T07:39:01.734Z,6.70
2023-04-14T07:41:30.067Z,7.40
2023-04-14T07:43:59.707Z,7.20
2023-04-14T07:46:28.736Z,7.80
2023-04-14T07:48:57.149Z,7.40
2023-04-14T07:51:31.548Z,7.50
2023-04-14T07:54:00.101Z,6.50
2023-04-14T07:56:28.299Z,7.00
2023-04-14T07:58:57.363Z,6.90
2023-04-14T08:01:25.821Z,7.00
2023-04-14T08:03:54.736Z,7.20
2023-04-14T08:06:22.983Z,6.40
2023-04-14T08:08:52.529Z,7.50
2023-04-14T08:11:20.623Z,7.50
2023-04-14T08:13:50.083Z,8.00
2023-04-14T08:16:21.490Z,9.20
2023-04-14T08:18:51.853Z,8.30
2023-04-14T08:21:19.919Z,7.80
2023-04-14T08:23:48.164Z,7.30
2023-04-14T08:26:16.508Z,7.20
2023-04-14T08:28:44.844Z,7.20
2023-04-14T08:31:16.730Z,7.60
2023-04-14T08:33:46.298Z,8.20
2023-04-14T08:36:14.338Z,8.80
2023-04-14T08:38:46.501Z,8.40
2023-04-14T08:41:17.417Z,7.90
2023-04-14T08:43:45.809Z,7.60
2023-04-14T08:49:13.579Z,8.50
2023-04-14T08:51:43.778Z,8.80
2023-04-14T08:54:12.602Z,8.30
2023-04-14T08:56:42.724Z,7.80
2023-04-14T08:59:11.636Z,8.20
2023-04-14T09:01:40.266Z,8.00
2023-04-14T09:04:09.322Z,8.60
2023-04-14T09:06:38.184Z,9.20
2023-04-14T09:09:10.757Z,8.40
2023-04-14T09:11:39.034Z,8.40
2023-04-14T09:14:07.180Z,8.50
2023-04-14T09:16:36.187Z,7.90
2023-04-14T09:19:07.092Z,7.80
2023-04-14T09:21:53.830Z,7.80
2023-04-14T09:24:32.117Z,8.00
2023-04-14T09:27:05.486Z,8.10
2023-04-14T09:29:33.871Z,7.80
2023-04-14T09:32:02.096Z,7.90
2023-04-14T09:34:32.439Z,8.10
2023-04-14T09:37:07.543Z,7.90
2023-04-14T09:39:36.854Z,8.40
2023-04-14T09:42:05.557Z,9.10
2023-04-14T09:44:34.126Z,8.10
2023-04-14T09:47:06.778Z,8.30
2023-04-14T09:49:35.673Z,7.90
2023-04-14T09:52:09.053Z,7.30
2023-04-14T09:57:08.415Z,9.00
2023-04-14T09:59:37.986Z,9.10
2023-04-14T10:02:09.953Z,8.10
2023-04-14T10:04:38.325Z,8.10
2023-04-14T10:07:08.371Z,8.50
2023-04-14T10:09:38.561Z,8.40
2023-04-14T10:12:09.839Z,9.60
2023-04-14T10:14:43.489Z,9.20
2023-04-14T10:17:13.776Z,9.00
2023-04-14T10:19:42.150Z,8.80
2023-04-14T10:22:10.363Z,8.40
2023-04-14T10:24:38.756Z,8.00
2023-04-14T10:27:06.898Z,8.10
2023-04-14T10:29:36.160Z,9.10
2023-04-14T10:32:08.864Z,8.60
2023-04-14T10:34:37.473Z,9.00
2023-04-14T10:37:15.673Z,12.20
2023-04-14T10:39:43.919Z,9.90
2023-04-14T10:42:12.502Z,8.40
2023-04-14T10:44:40.930Z,8.30
2023-04-14T10:47:09.141Z,8.90
2023-04-14T10:49:38.783Z,8.30
2023-04-14T10:52:16.882Z,8.30
2023-04-14T10:54:54.386Z,7.70
2023-04-14T10:57:25.999Z,7.30
2023-04-14T10:59:55.955Z,8.70
2023-04-14T11:02:30.872Z,9.30
2023-04-14T11:05:04.597Z,8.50
2023-04-14T11:07:47.330Z,7.90
2023-04-14T11:10:21.532Z,7.90
2023-04-14T11:12:54.838Z,9.00
2023-04-14T11:15:50.015Z,9.50
2023-04-14T11:18:29.029Z,7.90
2023-04-14T11:21:05.009Z,8.70
2023-04-14T11:23:36.118Z,7.90
2023-04-14T11:26:12.335Z,10.30
2023-04-14T11:28:44.674Z,8.70
2023-04-14T11:31:15.236Z,10.90
2023-04-14T11:33:44.750Z,7.90
2023-04-14T11:36:16.660Z,7.90
2023-04-14T11:38:47.941Z,8.10
2023-04-14T11:41:16.526Z,7.20
2023-04-14T11:43:47.189Z,7.40
2023-04-14T11:46:18.371Z,8.60
2023-04-14T11:48:55.155Z,8.60
2023-04-14T11:51:32.441Z,7.50
2023-04-14T11:54:01.689Z,7.70
2023-04-14T11:56:30.889Z,8.20
2023-04-14T11:59:00.996Z,8.40
2023-04-14T12:01:32.207Z,7.70
2023-04-14T12:04:01.554Z,8.10
2023-04-14T12:06:30.248Z,7.70
2023-04-14T12:09:08.624Z,7.70
2023-04-14T12:11:37.643Z,8.10
2023-04-14T12:14:05.906Z,7.00
2023-04-14T12:16:34.189Z,6.60
2023-04-14T12:19:03.986Z,6.40
2023-04-14T12:21:33.052Z,7.20
2023-04-14T12:24:01.154Z,7.50
2023-04-14T12:26:30.123Z,7.40
2023-04-14T12:28:59.726Z,7.30
2023-04-14T12:31:30.029Z,7.80
2023-04-14T12:34:03.670Z,8.40
2023-04-14T12:36:48.150Z,7.60
2023-04-14T12:39:22.334Z,6.80
2023-04-14T12:41:50.813Z,6.80
2023-04-14T12:44:20.845Z,7.40
2023-04-14T12:46:50.582Z,7.30
2023-04-14T12:49:31.227Z,7.00
2023-04-14T12:52:00.428Z,6.50
2023-04-14T12:54:45.927Z,6.40
2023-04-14T12:57:14.204Z,7.20
2023-04-14T12:59:43.286Z,6.80
2023-04-14T13:02:11.470Z,6.50
2023-04-14T13:04:40.071Z,7.50
2023-04-14T13:07:08.233Z,7.30
2023-04-14T13:09:36.345Z,7.00
2023-04-14T13:12:04.524Z,6.10
2023-04-14T13:14:32.535Z,6.10
2023-04-14T13:17:01.614Z,7.10
2023-04-14T13:19:30.058Z,6.60
2023-04-14T13:21:58.079Z,6.90
2023-04-14T13:24:26.982Z,6.70
2023-04-14T13:26:55.071Z,6.60
2023-04-14T13:29:25.487Z,6.00
2023-04-14T13:31:55.491Z,6.70
2023-04-14T13:34:23.798Z,7.10
2023-04-14T13:36:53.408Z,7.30
2023-04-14T13:39:22.835Z,7.40
2023-04-14T13:41:52.263Z,7.30
2023-04-14T13:44:20.347Z,7.30
2023-04-14T13:46:51.580Z,6.10
2023-04-14T13:49:19.687Z,6.90
2023-04-14T13:51:47.718Z,7.50
2023-04-14T13:54:15.751Z,7.40
2023-04-14T13:56:44.531Z,6.90
2023-04-14T13:59:16.243Z,7.30
2023-04-14T14:01:44.691Z,8.80
2023-04-14T14:04:13.807Z,8.70
2023-04-14T14:06:42.905Z,7.40
2023-04-14T14:09:11.113Z,7.80
2023-04-14T14:11:44.224Z,8.20
2023-04-14T14:14:13.064Z,9.40
2023-04-14T14:16:41.653Z,8.50
2023-04-14T14:19:18.270Z,7.80
2023-04-14T14:21:47.331Z,7.30
2023-04-14T14:24:15.471Z,8.80
2023-04-14T14:26:43.686Z,8.50
2023-04-14T14:29:12.072Z,9.40
2023-04-14T14:31:40.513Z,7.90
2023-04-14T14:34:09.730Z,7.30
2023-04-14T14:36:37.802Z,7.50
2023-04-14T14:39:07.178Z,6.20
2023-04-14T14:41:36.131Z,7.90
2023-04-14T14:44:04.959Z,8.90
2023-04-14T14:46:36.494Z,7.40
2023-04-14T14:49:05.529Z,6.50
2023-04-14T14:51:34.008Z,8.00
2023-04-14T14:54:10.057Z,6.50
2023-04-14T14:56:38.818Z,7.50
2023-04-14T14:59:08.535Z,8.70
2023-04-14T15:01:37.331Z,7.30
2023-04-14T15:04:07.829Z,6.60
2023-04-14T15:06:36.584Z,7.10
2023-04-14T15:09:05.672Z,7.50
2023-04-14T15:11:36.806Z,7.80
2023-04-14T15:14:05.259Z,7.50
2023-04-14T15:16:33.539Z,7.50
2023-04-14T15:19:03.470Z,8.20
2023-04-14T15:21:33.007Z,6.60
2023-04-14T15:24:01.785Z,8.60
2023-04-14T15:26:32.223Z,7.50
2023-04-14T15:29:02.554Z,8.10
2023-04-14T15:31:31.169Z,7.80
2023-04-14T15:34:02.494Z,7.30
2023-04-14T15:36:34.022Z,6.70
2023-04-14T15:39:02.285Z,13.70
2023-04-14T15:41:30.415Z,10.50
2023-04-14T15:43:58.785Z,7.70
2023-04-14T15:46:27.715Z,8.40
2023-04-14T15:48:57.707Z,8.10
2023-04-14T15:51:26.394Z,8.10
2023-04-14T15:53:54.525Z,6.80
2023-04-14T15:56:26.047Z,7.00
2023-04-14T15:58:54.149Z,6.60
2023-04-14T16:01:22.407Z,6.50
2023-04-14T16:03:52.717Z,6.60
2023-04-14T16:06:21.587Z,6.60
2023-04-14T16:08:49.818Z,7.20
2023-04-14T16:11:18.054Z,6.70
2023-04-14T16:13:56.939Z,7.00
2023-04-14T16:16:26.418Z,7.20
2023-04-14T16:18:55.119Z,7.10
2023-04-14T16:21:23.655Z,7.60
2023-04-14T16:23:51.914Z,6.30
2023-04-14T16:26:20.321Z,6.20
2023-04-14T16:28:52.672Z,6.10
2023-04-14T16:31:21.956Z,6.30
2023-04-14T16:33:50.488Z,5.60
2023-04-14T16:36:19.255Z,5.40
2023-04-14T16:38:51.014Z,5.90
2023-04-14T16:41:19.307Z,6.00
2023-04-14T16:43:47.663Z,5.70
2023-04-14T16:46:16.744Z,6.00
2023-04-14T16:48:44.940Z,6.00
2023-04-14T16:51:15.035Z,6.90
2023-04-14T16:53:46.035Z,6.40
2023-04-14T16:56:14.186Z,7.50
2023-04-14T16:58:45.320Z,14.10
2023-04-14T17:01:13.757Z,11.40
2023-04-14T17:03:42.640Z,13.10
2023-04-14T17:06:11.004Z,7.40
2023-04-14T17:08:41.685Z,7.20
2023-04-14T17:11:09.837Z,7.50
2023-04-14T17:13:38.392Z,6.30
2023-04-14T17:16:11.982Z,6.80
2023-04-14T17:18:41.574Z,6.20
2023-04-14T17:21:09.678Z,6.30
2023-04-14T17:23:49.022Z,8.40
2023-04-14T17:26:17.749Z,6.80
2023-04-14T17:28:46.222Z,6.70
2023-04-14T17:31:21.070Z,5.70
2023-04-14T17:33:49.751Z,5.40
2023-04-14T17:36:18.437Z,5.40
2023-04-14T17:38:47.268Z,6.00
2023-04-14T17:41:16.220Z,5.60
2023-04-14T17:43:46.911Z,5.40
2023-04-14T17:46:16.790Z,5.50
2023-04-14T17:48:45.068Z,5.10
2023-04-14T17:51:13.487Z,5.30
2023-04-14T17:53:43.065Z,5.10
2023-04-14T17:56:11.693Z,6.10
2023-04-14T17:58:40.648Z,5.60
2023-04-14T18:01:09.874Z,5.00
2023-04-14T18:03:38.432Z,4.60
2023-04-14T18:06:07.120Z,6.20
2023-04-14T18:08:36.820Z,6.40
2023-04-14T18:11:06.862Z,5.80
2023-04-14T18:13:36.351Z,7.70
2023-04-14T18:16:05.522Z,8.60
2023-04-14T18:18:36.419Z,6.30
2023-04-14T18:21:04.863Z,5.10
2023-04-14T18:23:33.198Z,6.50
2023-04-14T18:28:39.118Z,6.00
2023-04-14T18:31:07.863Z,5.40
2023-04-14T18:33:36.453Z,6.20
2023-04-14T18:36:05.309Z,7.00
2023-04-14T18:38:33.407Z,6.50
2023-04-14T18:41:03.703Z,6.70
2023-04-14T18:43:33.321Z,6.10
2023-04-14T18:46:02.554Z,6.20
2023-04-14T18:48:34.579Z,5.60
2023-04-14T18:51:08.023Z,5.30
2023-04-14T18:53:36.198Z,5.50
2023-04-14T18:56:04.779Z,6.10
2023-04-14T18:58:34.272Z,5.70
2023-04-14T19:01:02.804Z,5.60
2023-04-14T19:03:33.247Z,4.60
2023-04-14T19:06:01.781Z,4.80
2023-04-14T19:08:30.620Z,5.10
2023-04-14T19:11:05.765Z,5.10
2023-04-14T19:13:34.213Z,5.10
2023-04-14T19:16:09.101Z,5.10
2023-04-14T19:18:37.268Z,5.00
2023-04-14T19:21:08.982Z,5.20
2023-04-14T19:23:41.087Z,4.90
2023-04-14T19:26:11.530Z,4.70
2023-04-14T19:28:42.613Z,4.70
2023-04-14T19:31:12.865Z,4.90
2023-04-14T19:33:41.935Z,3.90
2023-04-14T19:36:14.524Z,4.30
2023-04-14T19:38:42.986Z,4.10
2023-04-14T19:41:11.363Z,3.70
2023-04-14T19:43:40.484Z,4.10
2023-04-14T19:46:10.511Z,4.20
2023-04-14T19:48:39.810Z,4.20
2023-04-14T19:51:09.426Z,4.40
2023-04-14T19:53:39.775Z,4.50
2023-04-14T19:56:08.840Z,3.80
2023-04-14T19:58:37.004Z,4.00
2023-04-14T20:01:06.185Z,3.90
2023-04-14T20:03:36.328Z,4.00
2023-04-14T20:06:04.617Z,4.30
2023-04-14T20:08:34.735Z,4.60
2023-04-14T20:11:05.358Z,3.80
2023-04-14T20:13:35.565Z,3.90
2023-04-14T20:16:10.507Z,3.60
2023-04-14T20:18:58.473Z,3.80
2023-04-14T20:21:27.358Z,4.00
2023-04-14T20:23:55.641Z,4.00
2023-04-14T20:26:23.654Z,3.80
2023-04-14T20:28:51.704Z,3.90
2023-04-14T20:31:20.049Z,4.60
2023-04-14T20:33:51.202Z,3.80
2023-04-14T20:36:19.434Z,4.20
2023-04-14T20:38:47.593Z,4.30
2023-04-14T20:41:19.435Z,4.90
2023-04-14T20:43:48.129Z,4.40
2023-04-14T20:46:16.358Z,5.30
2023-04-14T20:48:49.047Z,4.40
2023-04-14T20:51:18.576Z,4.50
2023-04-14T20:53:46.742Z,4.60
2023-04-14T20:58:49.334Z,4.70
2023-04-14T21:01:17.508Z,4.80
2023-04-14T21:03:46.835Z,4.40
2023-04-14T21:07:17.231Z,5.30
2023-04-14T21:09:45.482Z,5.20
2023-04-14T21:12:18.937Z,5.30
2023-04-14T21:15:29.924Z,5.40
2023-04-14T21:17:37.219Z,5.40
2023-04-14T21:20:06.307Z,5.90
2023-04-14T21:22:35.315Z,5.30
2023-04-14T21:25:03.622Z,6.20
2023-04-14T21:27:32.209Z,5.90
2023-04-14T21:30:00.532Z,5.20
2023-04-14T21:32:29.134Z,5.30
2023-04-14T21:34:57.425Z,5.50
2023-04-14T21:37:25.858Z,5.20
2023-04-14T21:39:55.410Z,4.60
2023-04-14T21:42:23.872Z,4.20
2023-04-14T21:44:52.040Z,4.40
2023-04-14T21:47:20.080Z,3.60
2023-04-14T21:49:49.014Z,3.90
2023-04-14T21:52:18.006Z,3.40
2023-04-14T21:54:47.614Z,3.40
2023-04-14T21:57:16.222Z,3.30
2023-04-14T21:59:47.550Z,3.80
2023-04-14T22:02:15.759Z,3.40
2023-04-14T22:04:44.287Z,3.70
2023-04-14T22:07:12.503Z,3.20
2023-04-14T22:09:43.817Z,3.60
2023-04-14T22:12:13.204Z,3.30
2023-04-14T22:14:41.584Z,4.30
2023-04-14T22:17:12.256Z,4.40
2023-04-14T22:19:43.327Z,3.70
2023-04-14T22:22:11.463Z,3.50
2023-04-14T22:24:40.765Z,4.00
2023-04-14T22:27:09.407Z,3.90
2023-04-14T22:29:37.962Z,4.30
2023-04-14T22:32:11.555Z,3.90
2023-04-14T22:34:39.604Z,4.10
2023-04-14T22:37:07.860Z,4.50
2023-04-14T22:39:40.769Z,4.10
2023-04-14T22:42:09.314Z,4.20
2023-04-14T22:44:37.410Z,4.10
2023-04-14T22:47:09.689Z,4.60
2023-04-14T22:49:39.063Z,4.20
2023-04-14T22:52:07.594Z,4.80
2023-04-14T22:54:36.663Z,5.10
2023-04-14T22:57:05.010Z,5.10
2023-04-14T22:59:33.046Z,4.50
2023-04-14T23:02:02.845Z,4.40
2023-04-14T23:04:31.649Z,5.00
2023-04-14T23:06:59.833Z,4.70
2023-04-14T23:09:30.494Z,5.20
2023-04-14T23:12:01.296Z,4.50
2023-04-14T23:14:29.496Z,4.40
2023-04-14T23:17:04.349Z,4.80
2023-04-14T23:19:33.685Z,5.00
2023-04-14T23:22:02.499Z,4.50
2023-04-14T23:24:30.751Z,4.80
2023-04-14T23:26:58.942Z,4.60
2023-04-14T23:29:27.030Z,4.80
2023-04-14T23:31:55.232Z,5.40
2023-04-14T23:34:25.598Z,4.70
2023-04-14T23:36:54.529Z,4.50
2023-04-14T23:39:23.218Z,4.70
2023-04-14T23:41:54.618Z,4.90
2023-04-14T23:44:23.476Z,4.60
2023-04-14T23:46:51.889Z,4.90
2023-04-14T23:49:32.785Z,4.70
2023-04-14T23:52:05.284Z,5.10
2023-04-14T23:54:33.635Z,4.90
2023-04-14T23:57:01.879Z,4.50
2023-04-14T23:59:30.498Z,5.10
